Islamorada, Florida
Current Conditions -  °F | °C
As of 6:53 PM on Saturday 20 Dec 2014 (Local Time) from KMTH Reporting Station
Few Clouds Few Clouds  
Wind Chill: 74°   Ceiling: Unl
Heat Index: 74°   Visibility: 10mi
Dew Point: 67°   Wind: 5mph
Humidity: 79%   Direction: 80°E
Pressure: 30.05"   Gusts: NA
Location:  24.93°N, 80.63°W
Report Text: KMTH 202353Z AUTO 08004KT 10SM FEW035 23/19 A3005 RMK AO2 SLP173 T02330194 10261 20233 53010
Loading
Personal Weather Stations






























Interactive Weather Map New forecast layout! Learn more

10-Day Weather Forecast

Advertisements
Track Severe Weather on mobile